sensor_id;sensor_type;location;lat;lon;timestamp;P1;durP1;ratioP1;P2;durP2;ratioP2
19705;SDS011;10003;52.506;4.700;2022-12-05T00:02:00;22.43;;;12.40;;
19705;SDS011;10003;52.506;4.700;2022-12-05T00:04:29;20.33;;;12.50;;
19705;SDS011;10003;52.506;4.700;2022-12-05T00:06:57;22.60;;;11.27;;
19705;SDS011;10003;52.506;4.700;2022-12-05T00:09:26;21.73;;;13.93;;
19705;SDS011;10003;52.506;4.700;2022-12-05T00:11:54;22.40;;;13.37;;
19705;SDS011;10003;52.506;4.700;2022-12-05T00:14:23;20.30;;;12.43;;
19705;SDS011;10003;52.506;4.700;2022-12-05T00:16:51;18.60;;;12.30;;
19705;SDS011;10003;52.506;4.700;2022-12-05T00:19:21;15.47;;;8.37;;
19705;SDS011;10003;52.506;4.700;2022-12-05T00:21:49;13.80;;;8.73;;
19705;SDS011;10003;52.506;4.700;2022-12-05T00:24:18;21.80;;;12.83;;
19705;SDS011;10003;52.506;4.700;2022-12-05T00:26:46;17.37;;;10.97;;
19705;SDS011;10003;52.506;4.700;2022-12-05T00:29:15;19.30;;;12.87;;
19705;SDS011;10003;52.506;4.700;2022-12-05T00:31:43;22.90;;;14.77;;
19705;SDS011;10003;52.506;4.700;2022-12-05T00:34:12;13.37;;;10.07;;
19705;SDS011;10003;52.506;4.700;2022-12-05T00:36:41;22.50;;;15.73;;
19705;SDS011;10003;52.506;4.700;2022-12-05T00:39:10;17.90;;;13.40;;
19705;SDS011;10003;52.506;4.700;2022-12-05T00:41:41;16.80;;;11.87;;
19705;SDS011;10003;52.506;4.700;2022-12-05T00:44:10;14.50;;;11.53;;
19705;SDS011;10003;52.506;4.700;2022-12-05T00:46:39;14.53;;;10.57;;
19705;SDS011;10003;52.506;4.700;2022-12-05T00:49:09;15.80;;;10.73;;
19705;SDS011;10003;52.506;4.700;2022-12-05T00:51:38;20.13;;;11.63;;
19705;SDS011;10003;52.506;4.700;2022-12-05T00:54:09;12.50;;;9.43;;
19705;SDS011;10003;52.506;4.700;2022-12-05T00:56:37;15.00;;;11.47;;
19705;SDS011;10003;52.506;4.700;2022-12-05T00:59:06;9.83;;;8.47;;
19705;SDS011;10003;52.506;4.700;2022-12-05T01:01:35;16.63;;;8.10;;
19705;SDS011;10003;52.506;4.700;2022-12-05T01:04:05;10.53;;;8.40;;
19705;SDS011;10003;52.506;4.700;2022-12-05T01:06:35;13.50;;;9.87;;
19705;SDS011;10003;52.506;4.700;2022-12-05T01:09:03;9.97;;;8.37;;
19705;SDS011;10003;52.506;4.700;2022-12-05T01:11:33;12.70;;;9.60;;
19705;SDS011;10003;52.506;4.700;2022-12-05T01:14:06;14.53;;;9.80;;
19705;SDS011;10003;52.506;4.700;2022-12-05T01:16:36;12.17;;;8.50;;
19705;SDS011;10003;52.506;4.700;2022-12-05T01:19:05;20.40;;;13.53;;
19705;SDS011;10003;52.506;4.700;2022-12-05T01:21:34;12.57;;;9.17;;
19705;SDS011;10003;52.506;4.700;2022-12-05T01:24:02;15.90;;;11.53;;
19705;SDS011;10003;52.506;4.700;2022-12-05T01:26:31;20.20;;;13.73;;
19705;SDS011;10003;52.506;4.700;2022-12-05T01:29:01;12.60;;;8.67;;
19705;SDS011;10003;52.506;4.700;2022-12-05T01:31:30;17.50;;;10.27;;
19705;SDS011;10003;52.506;4.700;2022-12-05T01:33:59;12.10;;;9.10;;
19705;SDS011;10003;52.506;4.700;2022-12-05T01:36:28;11.63;;;8.70;;
19705;SDS011;10003;52.506;4.700;2022-12-05T01:38:57;18.63;;;11.23;;
19705;SDS011;10003;52.506;4.700;2022-12-05T01:41:27;17.07;;;11.27;;
19705;SDS011;10003;52.506;4.700;2022-12-05T01:43:58;15.37;;;10.80;;
19705;SDS011;10003;52.506;4.700;2022-12-05T01:46:29;10.00;;;8.47;;
19705;SDS011;10003;52.506;4.700;2022-12-05T01:48:59;16.57;;;9.47;;
19705;SDS011;10003;52.506;4.700;2022-12-05T01:51:29;13.40;;;10.30;;
19705;SDS011;10003;52.506;4.700;2022-12-05T01:53:57;12.43;;;10.50;;
19705;SDS011;10003;52.506;4.700;2022-12-05T01:56:26;13.03;;;9.40;;
19705;SDS011;10003;52.506;4.700;2022-12-05T01:58:55;16.20;;;8.03;;
19705;SDS011;10003;52.506;4.700;2022-12-05T02:01:23;11.90;;;9.17;;
19705;SDS011;10003;52.506;4.700;2022-12-05T02:03:54;17.07;;;11.53;;
19705;SDS011;10003;52.506;4.700;2022-12-05T02:06:24;11.90;;;9.63;;
19705;SDS011;10003;52.506;4.700;2022-12-05T02:08:53;11.03;;;8.30;;
19705;SDS011;10003;52.506;4.700;2022-12-05T02:11:22;16.97;;;11.70;;
19705;SDS011;10003;52.506;4.700;2022-12-05T02:13:58;13.00;;;9.60;;
19705;SDS011;10003;52.506;4.700;2022-12-05T02:16:31;15.67;;;11.07;;
19705;SDS011;10003;52.506;4.700;2022-12-05T02:19:14;13.83;;;10.33;;
19705;SDS011;10003;52.506;4.700;2022-12-05T02:24:51;13.60;;;10.73;;
19705;SDS011;10003;52.506;4.700;2022-12-05T02:27:26;16.30;;;12.13;;
19705;SDS011;10003;52.506;4.700;2022-12-05T02:30:02;14.90;;;12.20;;
19705;SDS011;10003;52.506;4.700;2022-12-05T02:32:34;9.20;;;7.23;;
19705;SDS011;10003;52.506;4.700;2022-12-05T02:35:06;14.13;;;10.73;;
19705;SDS011;10003;52.506;4.700;2022-12-05T02:37:37;14.40;;;10.53;;
19705;SDS011;10003;52.506;4.700;2022-12-05T02:40:08;14.13;;;10.87;;
19705;SDS011;10003;52.506;4.700;2022-12-05T02:42:41;15.23;;;9.73;;
19705;SDS011;10003;52.506;4.700;2022-12-05T02:45:12;18.53;;;13.20;;
19705;SDS011;10003;52.506;4.700;2022-12-05T02:47:43;13.90;;;9.90;;
19705;SDS011;10003;52.506;4.700;2022-12-05T02:50:12;16.20;;;10.60;;
19705;SDS011;10003;52.506;4.700;2022-12-05T02:52:42;15.97;;;11.43;;
19705;SDS011;10003;52.506;4.700;2022-12-05T02:55:12;12.07;;;8.50;;
19705;SDS011;10003;52.506;4.700;2022-12-05T02:57:41;12.77;;;9.17;;
19705;SDS011;10003;52.506;4.700;2022-12-05T03:00:12;15.63;;;11.50;;
19705;SDS011;10003;52.506;4.700;2022-12-05T03:02:41;18.57;;;12.80;;
19705;SDS011;10003;52.506;4.700;2022-12-05T03:05:13;7.10;;;6.37;;
19705;SDS011;10003;52.506;4.700;2022-12-05T03:07:42;10.80;;;7.73;;
19705;SDS011;10003;52.506;4.700;2022-12-05T03:10:12;12.57;;;9.47;;
19705;SDS011;10003;52.506;4.700;2022-12-05T03:12:43;12.57;;;10.37;;
19705;SDS011;10003;52.506;4.700;2022-12-05T03:15:14;12.07;;;9.23;;
19705;SDS011;10003;52.506;4.700;2022-12-05T03:17:43;11.03;;;7.57;;
19705;SDS011;10003;52.506;4.700;2022-12-05T03:20:15;10.67;;;7.63;;
19705;SDS011;10003;52.506;4.700;2022-12-05T03:22:47;12.27;;;8.53;;
19705;SDS011;10003;52.506;4.700;2022-12-05T03:25:17;13.93;;;7.90;;
19705;SDS011;10003;52.506;4.700;2022-12-05T03:27:48;10.03;;;8.70;;
19705;SDS011;10003;52.506;4.700;2022-12-05T03:30:18;17.93;;;12.23;;
19705;SDS011;10003;52.506;4.700;2022-12-05T03:32:48;13.63;;;10.37;;
19705;SDS011;10003;52.506;4.700;2022-12-05T03:35:21;14.37;;;9.90;;
19705;SDS011;10003;52.506;4.700;2022-12-05T03:37:51;11.63;;;8.70;;
19705;SDS011;10003;52.506;4.700;2022-12-05T03:40:25;16.20;;;11.40;;
19705;SDS011;10003;52.506;4.700;2022-12-05T03:42:55;13.03;;;9.57;;
19705;SDS011;10003;52.506;4.700;2022-12-05T03:45:29;15.33;;;11.40;;
19705;SDS011;10003;52.506;4.700;2022-12-05T03:47:59;15.20;;;9.40;;
19705;SDS011;10003;52.506;4.700;2022-12-05T03:50:31;16.07;;;11.00;;
19705;SDS011;10003;52.506;4.700;2022-12-05T03:53:02;13.20;;;9.67;;
19705;SDS011;10003;52.506;4.700;2022-12-05T03:55:48;15.23;;;8.87;;
19705;SDS011;10003;52.506;4.700;2022-12-05T03:58:19;13.00;;;9.67;;
19705;SDS011;10003;52.506;4.700;2022-12-05T04:00:51;17.67;;;10.87;;
19705;SDS011;10003;52.506;4.700;2022-12-05T04:03:21;20.53;;;11.47;;
19705;SDS011;10003;52.506;4.700;2022-12-05T04:05:53;14.20;;;11.00;;
19705;SDS011;10003;52.506;4.700;2022-12-05T04:08:23;16.07;;;12.13;;
19705;SDS011;10003;52.506;4.700;2022-12-05T04:10:54;23.57;;;15.03;;
19705;SDS011;10003;52.506;4.700;2022-12-05T04:13:31;19.10;;;9.57;;
19705;SDS011;10003;52.506;4.700;2022-12-05T04:16:02;20.77;;;10.50;;
19705;SDS011;10003;52.506;4.700;2022-12-05T04:18:50;19.83;;;13.13;;
19705;SDS011;10003;52.506;4.700;2022-12-05T04:21:20;14.43;;;9.90;;
19705;SDS011;10003;52.506;4.700;2022-12-05T04:24:04;23.03;;;13.47;;
19705;SDS011;10003;52.506;4.700;2022-12-05T04:26:52;23.27;;;14.23;;
19705;SDS011;10003;52.506;4.700;2022-12-05T04:29:24;19.73;;;13.50;;
19705;SDS011;10003;52.506;4.700;2022-12-05T04:31:56;15.90;;;10.77;;
19705;SDS011;10003;52.506;4.700;2022-12-05T04:34:25;20.47;;;14.63;;
19705;SDS011;10003;52.506;4.700;2022-12-05T04:36:56;9.57;;;5.87;;
19705;SDS011;10003;52.506;4.700;2022-12-05T04:39:28;15.50;;;12.57;;
19705;SDS011;10003;52.506;4.700;2022-12-05T04:42:00;18.60;;;11.67;;
19705;SDS011;10003;52.506;4.700;2022-12-05T04:44:29;16.87;;;12.10;;
19705;SDS011;10003;52.506;4.700;2022-12-05T04:47:02;16.53;;;11.13;;
19705;SDS011;10003;52.506;4.700;2022-12-05T04:49:31;19.73;;;12.77;;
19705;SDS011;10003;52.506;4.700;2022-12-05T04:52:01;10.93;;;8.97;;
19705;SDS011;10003;52.506;4.700;2022-12-05T04:54:30;10.47;;;8.17;;
19705;SDS011;10003;52.506;4.700;2022-12-05T04:57:01;13.00;;;7.77;;
19705;SDS011;10003;52.506;4.700;2022-12-05T04:59:32;26.57;;;16.93;;
19705;SDS011;10003;52.506;4.700;2022-12-05T05:02:03;15.80;;;11.47;;
19705;SDS011;10003;52.506;4.700;2022-12-05T05:04:34;19.53;;;11.87;;
19705;SDS011;10003;52.506;4.700;2022-12-05T05:07:04;14.40;;;9.23;;
19705;SDS011;10003;52.506;4.700;2022-12-05T05:09:33;10.57;;;7.47;;
19705;SDS011;10003;52.506;4.700;2022-12-05T05:12:01;16.77;;;10.20;;
19705;SDS011;10003;52.506;4.700;2022-12-05T05:14:30;18.80;;;7.07;;
19705;SDS011;10003;52.506;4.700;2022-12-05T05:16:58;15.17;;;9.97;;
19705;SDS011;10003;52.506;4.700;2022-12-05T05:19:28;13.03;;;9.20;;
19705;SDS011;10003;52.506;4.700;2022-12-05T05:21:56;15.13;;;10.37;;
19705;SDS011;10003;52.506;4.700;2022-12-05T05:24:25;18.90;;;13.57;;
19705;SDS011;10003;52.506;4.700;2022-12-05T05:26:53;23.10;;;10.03;;
19705;SDS011;10003;52.506;4.700;2022-12-05T05:29:23;11.97;;;9.37;;
19705;SDS011;10003;52.506;4.700;2022-12-05T05:31:51;21.00;;;12.23;;
19705;SDS011;10003;52.506;4.700;2022-12-05T05:34:19;12.63;;;8.87;;
19705;SDS011;10003;52.506;4.700;2022-12-05T05:36:51;18.17;;;11.40;;
19705;SDS011;10003;52.506;4.700;2022-12-05T05:39:19;8.63;;;7.50;;
19705;SDS011;10003;52.506;4.700;2022-12-05T05:41:48;10.27;;;9.27;;
19705;SDS011;10003;52.506;4.700;2022-12-05T05:44:16;7.03;;;5.33;;
19705;SDS011;10003;52.506;4.700;2022-12-05T05:46:44;9.33;;;6.70;;
19705;SDS011;10003;52.506;4.700;2022-12-05T05:49:13;7.43;;;5.93;;
19705;SDS011;10003;52.506;4.700;2022-12-05T05:51:41;9.80;;;7.93;;
19705;SDS011;10003;52.506;4.700;2022-12-05T05:54:11;11.27;;;8.03;;
19705;SDS011;10003;52.506;4.700;2022-12-05T05:56:39;7.10;;;5.10;;
19705;SDS011;10003;52.506;4.700;2022-12-05T05:59:08;17.73;;;9.80;;
19705;SDS011;10003;52.506;4.700;2022-12-05T06:01:36;17.27;;;7.73;;
19705;SDS011;10003;52.506;4.700;2022-12-05T06:04:04;15.00;;;8.97;;
19705;SDS011;10003;52.506;4.700;2022-12-05T06:06:33;7.70;;;5.77;;
19705;SDS011;10003;52.506;4.700;2022-12-05T06:09:04;7.10;;;4.90;;
19705;SDS011;10003;52.506;4.700;2022-12-05T06:11:34;6.77;;;5.37;;
19705;SDS011;10003;52.506;4.700;2022-12-05T06:14:02;6.47;;;5.80;;
19705;SDS011;10003;52.506;4.700;2022-12-05T06:16:31;7.60;;;5.37;;
19705;SDS011;10003;52.506;4.700;2022-12-05T06:18:59;12.23;;;6.53;;
19705;SDS011;10003;52.506;4.700;2022-12-05T06:21:28;5.13;;;4.40;;
19705;SDS011;10003;52.506;4.700;2022-12-05T06:23:56;8.30;;;5.73;;
19705;SDS011;10003;52.506;4.700;2022-12-05T06:26:25;7.27;;;5.80;;
19705;SDS011;10003;52.506;4.700;2022-12-05T06:28:54;3.43;;;3.13;;
19705;SDS011;10003;52.506;4.700;2022-12-05T06:31:23;7.60;;;6.80;;
19705;SDS011;10003;52.506;4.700;2022-12-05T06:33:58;10.83;;;6.27;;
19705;SDS011;10003;52.506;4.700;2022-12-05T06:36:27;6.50;;;5.50;;
19705;SDS011;10003;52.506;4.700;2022-12-05T06:38:55;7.67;;;5.10;;
19705;SDS011;10003;52.506;4.700;2022-12-05T06:41:24;3.93;;;3.13;;
19705;SDS011;10003;52.506;4.700;2022-12-05T06:43:53;2.97;;;2.77;;
19705;SDS011;10003;52.506;4.700;2022-12-05T06:46:29;5.77;;;5.03;;
19705;SDS011;10003;52.506;4.700;2022-12-05T06:48:57;4.30;;;3.90;;
19705;SDS011;10003;52.506;4.700;2022-12-05T06:51:26;4.27;;;3.73;;
19705;SDS011;10003;52.506;4.700;2022-12-05T06:53:54;7.73;;;5.70;;
19705;SDS011;10003;52.506;4.700;2022-12-05T06:56:23;6.50;;;5.90;;
19705;SDS011;10003;52.506;4.700;2022-12-05T06:58:52;6.53;;;3.63;;
19705;SDS011;10003;52.506;4.700;2022-12-05T07:01:22;5.13;;;3.00;;
19705;SDS011;10003;52.506;4.700;2022-12-05T07:04:09;7.77;;;5.23;;
19705;SDS011;10003;52.506;4.700;2022-12-05T07:06:38;8.70;;;6.43;;
19705;SDS011;10003;52.506;4.700;2022-12-05T07:09:12;9.13;;;4.80;;
19705;SDS011;10003;52.506;4.700;2022-12-05T07:11:41;10.87;;;6.73;;
19705;SDS011;10003;52.506;4.700;2022-12-05T07:14:09;5.37;;;4.17;;
19705;SDS011;10003;52.506;4.700;2022-12-05T07:16:57;5.13;;;3.40;;
19705;SDS011;10003;52.506;4.700;2022-12-05T07:19:27;3.03;;;2.73;;
19705;SDS011;10003;52.506;4.700;2022-12-05T07:21:56;5.60;;;3.93;;
19705;SDS011;10003;52.506;4.700;2022-12-05T07:24:24;5.37;;;4.83;;
19705;SDS011;10003;52.506;4.700;2022-12-05T07:26:52;7.57;;;6.27;;
19705;SDS011;10003;52.506;4.700;2022-12-05T07:29:20;4.13;;;3.70;;
19705;SDS011;10003;52.506;4.700;2022-12-05T07:31:49;5.87;;;4.93;;
19705;SDS011;10003;52.506;4.700;2022-12-05T07:34:17;6.87;;;5.43;;
19705;SDS011;10003;52.506;4.700;2022-12-05T07:36:47;7.13;;;6.43;;
19705;SDS011;10003;52.506;4.700;2022-12-05T07:39:15;4.93;;;4.53;;
19705;SDS011;10003;52.506;4.700;2022-12-05T07:41:44;5.30;;;4.47;;
19705;SDS011;10003;52.506;4.700;2022-12-05T07:44:12;5.30;;;4.77;;
19705;SDS011;10003;52.506;4.700;2022-12-05T07:46:41;8.13;;;5.93;;
19705;SDS011;10003;52.506;4.700;2022-12-05T07:49:09;7.90;;;5.37;;
19705;SDS011;10003;52.506;4.700;2022-12-05T07:51:38;3.97;;;3.20;;
19705;SDS011;10003;52.506;4.700;2022-12-05T07:54:07;4.60;;;3.73;;
19705;SDS011;10003;52.506;4.700;2022-12-05T07:56:36;6.03;;;5.00;;
19705;SDS011;10003;52.506;4.700;2022-12-05T07:59:12;7.10;;;4.40;;
19705;SDS011;10003;52.506;4.700;2022-12-05T08:01:41;7.23;;;5.23;;
19705;SDS011;10003;52.506;4.700;2022-12-05T08:04:09;10.33;;;9.13;;
19705;SDS011;10003;52.506;4.700;2022-12-05T08:06:41;4.60;;;3.87;;
19705;SDS011;10003;52.506;4.700;2022-12-05T08:09:11;8.13;;;5.23;;
19705;SDS011;10003;52.506;4.700;2022-12-05T08:11:39;5.13;;;4.63;;
19705;SDS011;10003;52.506;4.700;2022-12-05T08:14:13;6.87;;;4.87;;
19705;SDS011;10003;52.506;4.700;2022-12-05T08:16:41;5.73;;;4.63;;
19705;SDS011;10003;52.506;4.700;2022-12-05T08:19:10;4.43;;;4.03;;
19705;SDS011;10003;52.506;4.700;2022-12-05T08:21:40;7.77;;;4.90;;
19705;SDS011;10003;52.506;4.700;2022-12-05T08:24:10;6.30;;;4.67;;
19705;SDS011;10003;52.506;4.700;2022-12-05T08:26:39;2.47;;;1.87;;
19705;SDS011;10003;52.506;4.700;2022-12-05T08:29:08;9.40;;;6.10;;
19705;SDS011;10003;52.506;4.700;2022-12-05T08:31:38;6.93;;;5.83;;
19705;SDS011;10003;52.506;4.700;2022-12-05T08:34:09;6.37;;;4.07;;
19705;SDS011;10003;52.506;4.700;2022-12-05T08:36:38;4.57;;;4.00;;
19705;SDS011;10003;52.506;4.700;2022-12-05T08:39:07;8.57;;;6.27;;
19705;SDS011;10003;52.506;4.700;2022-12-05T08:41:38;5.73;;;4.77;;
19705;SDS011;10003;52.506;4.700;2022-12-05T08:44:07;6.33;;;5.50;;
19705;SDS011;10003;52.506;4.700;2022-12-05T08:46:36;7.13;;;5.63;;
19705;SDS011;10003;52.506;4.700;2022-12-05T08:49:05;7.37;;;4.43;;
19705;SDS011;10003;52.506;4.700;2022-12-05T08:51:33;3.07;;;2.83;;
19705;SDS011;10003;52.506;4.700;2022-12-05T08:54:02;4.97;;;3.77;;
19705;SDS011;10003;52.506;4.700;2022-12-05T08:56:30;8.33;;;5.73;;
19705;SDS011;10003;52.506;4.700;2022-12-05T08:59:00;14.00;;;4.50;;
19705;SDS011;10003;52.506;4.700;2022-12-05T09:01:31;5.43;;;4.27;;
19705;SDS011;10003;52.506;4.700;2022-12-05T09:04:05;10.57;;;5.57;;
19705;SDS011;10003;52.506;4.700;2022-12-05T09:06:34;5.00;;;4.10;;
19705;SDS011;10003;52.506;4.700;2022-12-05T09:09:05;4.87;;;4.23;;
19705;SDS011;10003;52.506;4.700;2022-12-05T09:11:35;9.23;;;3.90;;
19705;SDS011;10003;52.506;4.700;2022-12-05T09:14:07;6.43;;;5.70;;
19705;SDS011;10003;52.506;4.700;2022-12-05T09:16:36;7.30;;;4.23;;
19705;SDS011;10003;52.506;4.700;2022-12-05T09:19:05;6.23;;;4.73;;
19705;SDS011;10003;52.506;4.700;2022-12-05T09:21:37;3.83;;;3.43;;
19705;SDS011;10003;52.506;4.700;2022-12-05T09:24:06;7.00;;;5.10;;
19705;SDS011;10003;52.506;4.700;2022-12-05T09:26:34;5.83;;;5.27;;
19705;SDS011;10003;52.506;4.700;2022-12-05T09:29:05;6.10;;;3.33;;
19705;SDS011;10003;52.506;4.700;2022-12-05T09:31:46;2.87;;;2.60;;
19705;SDS011;10003;52.506;4.700;2022-12-05T09:34:16;3.23;;;2.93;;
19705;SDS011;10003;52.506;4.700;2022-12-05T09:36:45;6.63;;;4.27;;
19705;SDS011;10003;52.506;4.700;2022-12-05T09:39:35;4.53;;;4.13;;
19705;SDS011;10003;52.506;4.700;2022-12-05T09:42:14;6.80;;;4.30;;
19705;SDS011;10003;52.506;4.700;2022-12-05T09:44:52;7.13;;;4.50;;
19705;SDS011;10003;52.506;4.700;2022-12-05T09:47:29;10.17;;;6.53;;
19705;SDS011;10003;52.506;4.700;2022-12-05T09:50:00;3.37;;;3.07;;
19705;SDS011;10003;52.506;4.700;2022-12-05T09:52:30;3.53;;;3.23;;
19705;SDS011;10003;52.506;4.700;2022-12-05T09:55:02;3.70;;;3.37;;
19705;SDS011;10003;52.506;4.700;2022-12-05T09:57:36;9.97;;;4.10;;
19705;SDS011;10003;52.506;4.700;2022-12-05T10:00:05;5.03;;;3.43;;
19705;SDS011;10003;52.506;4.700;2022-12-05T10:02:39;5.53;;;3.97;;
19705;SDS011;10003;52.506;4.700;2022-12-05T10:05:10;6.37;;;4.83;;
19705;SDS011;10003;52.506;4.700;2022-12-05T10:07:40;4.43;;;3.53;;
19705;SDS011;10003;52.506;4.700;2022-12-05T10:10:20;4.03;;;3.63;;
19705;SDS011;10003;52.506;4.700;2022-12-05T10:12:53;7.23;;;4.37;;
19705;SDS011;10003;52.506;4.700;2022-12-05T10:15:26;6.53;;;2.90;;
19705;SDS011;10003;52.506;4.700;2022-12-05T10:17:58;3.97;;;3.57;;
19705;SDS011;10003;52.506;4.700;2022-12-05T10:20:29;5.97;;;3.53;;
19705;SDS011;10003;52.506;4.700;2022-12-05T10:23:00;5.20;;;3.23;;
19705;SDS011;10003;52.506;4.700;2022-12-05T10:25:29;5.43;;;4.87;;
19705;SDS011;10003;52.506;4.700;2022-12-05T10:28:00;5.47;;;2.90;;
19705;SDS011;10003;52.506;4.700;2022-12-05T10:30:30;2.43;;;2.23;;
19705;SDS011;10003;52.506;4.700;2022-12-05T10:33:03;5.87;;;3.90;;
19705;SDS011;10003;52.506;4.700;2022-12-05T10:35:38;3.60;;;3.30;;
19705;SDS011;10003;52.506;4.700;2022-12-05T10:38:10;4.23;;;3.77;;
19705;SDS011;10003;52.506;4.700;2022-12-05T10:40:39;8.47;;;3.97;;
19705;SDS011;10003;52.506;4.700;2022-12-05T10:43:09;6.90;;;6.10;;
19705;SDS011;10003;52.506;4.700;2022-12-05T10:45:40;6.53;;;4.47;;
19705;SDS011;10003;52.506;4.700;2022-12-05T10:48:11;4.70;;;3.77;;
19705;SDS011;10003;52.506;4.700;2022-12-05T10:50:41;4.30;;;3.17;;
19705;SDS011;10003;52.506;4.700;2022-12-05T10:53:12;3.53;;;3.23;;
19705;SDS011;10003;52.506;4.700;2022-12-05T10:55:43;5.97;;;4.17;;
19705;SDS011;10003;52.506;4.700;2022-12-05T10:58:33;6.07;;;4.73;;
19705;SDS011;10003;52.506;4.700;2022-12-05T11:01:06;7.80;;;5.50;;
19705;SDS011;10003;52.506;4.700;2022-12-05T11:03:37;3.07;;;2.37;;
19705;SDS011;10003;52.506;4.700;2022-12-05T11:06:13;3.67;;;3.37;;
19705;SDS011;10003;52.506;4.700;2022-12-05T11:08:43;2.50;;;2.07;;
19705;SDS011;10003;52.506;4.700;2022-12-05T11:11:30;10.07;;;4.67;;
19705;SDS011;10003;52.506;4.700;2022-12-05T11:14:00;4.63;;;4.17;;
19705;SDS011;10003;52.506;4.700;2022-12-05T11:16:30;6.90;;;4.90;;
19705;SDS011;10003;52.506;4.700;2022-12-05T11:19:08;3.30;;;3.00;;
19705;SDS011;10003;52.506;4.700;2022-12-05T11:21:45;7.50;;;4.20;;
19705;SDS011;10003;52.506;4.700;2022-12-05T11:24:19;4.83;;;3.63;;
19705;SDS011;10003;52.506;4.700;2022-12-05T11:26:48;3.23;;;2.73;;
19705;SDS011;10003;52.506;4.700;2022-12-05T11:29:31;4.13;;;3.23;;
19705;SDS011;10003;52.506;4.700;2022-12-05T11:31:59;5.40;;;3.73;;
19705;SDS011;10003;52.506;4.700;2022-12-05T11:34:30;6.07;;;3.97;;
19705;SDS011;10003;52.506;4.700;2022-12-05T11:37:00;7.90;;;5.03;;
19705;SDS011;10003;52.506;4.700;2022-12-05T11:39:31;7.57;;;4.00;;
19705;SDS011;10003;52.506;4.700;2022-12-05T11:42:06;9.03;;;5.13;;
19705;SDS011;10003;52.506;4.700;2022-12-05T11:44:47;4.93;;;3.87;;
19705;SDS011;10003;52.506;4.700;2022-12-05T11:47:21;8.17;;;3.80;;
19705;SDS011;10003;52.506;4.700;2022-12-05T11:50:00;5.47;;;4.70;;
19705;SDS011;10003;52.506;4.700;2022-12-05T11:52:33;9.73;;;5.93;;
19705;SDS011;10003;52.506;4.700;2022-12-05T11:55:10;4.83;;;3.60;;
19705;SDS011;10003;52.506;4.700;2022-12-05T12:00:29;11.90;;;5.00;;
19705;SDS011;10003;52.506;4.700;2022-12-05T12:03:21;7.57;;;4.47;;
19705;SDS011;10003;52.506;4.700;2022-12-05T12:06:03;5.80;;;3.63;;
19705;SDS011;10003;52.506;4.700;2022-12-05T12:08:36;6.47;;;4.33;;
19705;SDS011;10003;52.506;4.700;2022-12-05T12:11:12;8.17;;;4.00;;
19705;SDS011;10003;52.506;4.700;2022-12-05T12:13:46;5.57;;;3.70;;
19705;SDS011;10003;52.506;4.700;2022-12-05T12:16:20;5.20;;;4.00;;
19705;SDS011;10003;52.506;4.700;2022-12-05T12:19:03;5.53;;;3.97;;
19705;SDS011;10003;52.506;4.700;2022-12-05T12:21:43;5.43;;;3.53;;
19705;SDS011;10003;52.506;4.700;2022-12-05T12:24:17;8.03;;;3.37;;
19705;SDS011;10003;52.506;4.700;2022-12-05T12:26:52;5.07;;;3.53;;
19705;SDS011;10003;52.506;4.700;2022-12-05T12:29:28;6.03;;;4.23;;
19705;SDS011;10003;52.506;4.700;2022-12-05T12:32:03;3.13;;;2.70;;
19705;SDS011;10003;52.506;4.700;2022-12-05T12:34:43;13.27;;;4.83;;
19705;SDS011;10003;52.506;4.700;2022-12-05T12:37:17;6.80;;;3.80;;
19705;SDS011;10003;52.506;4.700;2022-12-05T12:39:51;7.93;;;5.40;;
19705;SDS011;10003;52.506;4.700;2022-12-05T12:42:20;6.40;;;5.03;;
19705;SDS011;10003;52.506;4.700;2022-12-05T12:45:01;6.40;;;5.07;;
19705;SDS011;10003;52.506;4.700;2022-12-05T12:47:50;11.87;;;5.10;;
19705;SDS011;10003;52.506;4.700;2022-12-05T12:50:22;8.23;;;4.43;;
19705;SDS011;10003;52.506;4.700;2022-12-05T12:52:56;11.23;;;5.80;;
19705;SDS011;10003;52.506;4.700;2022-12-05T12:55:28;4.93;;;4.43;;
19705;SDS011;10003;52.506;4.700;2022-12-05T12:58:02;7.77;;;5.20;;
19705;SDS011;10003;52.506;4.700;2022-12-05T13:00:36;10.07;;;3.50;;
19705;SDS011;10003;52.506;4.700;2022-12-05T13:03:08;4.07;;;3.67;;
19705;SDS011;10003;52.506;4.700;2022-12-05T13:05:41;3.90;;;3.30;;
19705;SDS011;10003;52.506;4.700;2022-12-05T13:08:15;2.53;;;2.33;;
19705;SDS011;10003;52.506;4.700;2022-12-05T13:10:45;3.47;;;3.23;;
19705;SDS011;10003;52.506;4.700;2022-12-05T13:13:16;2.60;;;2.13;;
19705;SDS011;10003;52.506;4.700;2022-12-05T13:15:46;3.00;;;2.80;;
19705;SDS011;10003;52.506;4.700;2022-12-05T13:18:18;7.77;;;5.07;;
19705;SDS011;10003;52.506;4.700;2022-12-05T13:20:48;7.07;;;4.17;;
19705;SDS011;10003;52.506;4.700;2022-12-05T13:23:19;5.03;;;3.73;;
19705;SDS011;10003;52.506;4.700;2022-12-05T13:25:53;4.70;;;3.70;;
19705;SDS011;10003;52.506;4.700;2022-12-05T13:28:25;5.70;;;3.43;;
19705;SDS011;10003;52.506;4.700;2022-12-05T13:30:57;2.93;;;2.60;;
19705;SDS011;10003;52.506;4.700;2022-12-05T13:33:31;4.47;;;3.70;;
19705;SDS011;10003;52.506;4.700;2022-12-05T13:36:05;13.93;;;3.10;;
19705;SDS011;10003;52.506;4.700;2022-12-05T13:38:56;7.07;;;3.43;;
19705;SDS011;10003;52.506;4.700;2022-12-05T13:41:43;8.07;;;3.60;;
19705;SDS011;10003;52.506;4.700;2022-12-05T13:44:31;3.60;;;2.13;;
19705;SDS011;10003;52.506;4.700;2022-12-05T13:47:02;6.67;;;4.10;;
19705;SDS011;10003;52.506;4.700;2022-12-05T13:49:35;3.93;;;3.03;;
19705;SDS011;10003;52.506;4.700;2022-12-05T13:52:06;1.37;;;0.97;;
19705;SDS011;10003;52.506;4.700;2022-12-05T13:54:40;4.37;;;3.67;;
19705;SDS011;10003;52.506;4.700;2022-12-05T14:00:19;2.93;;;2.23;;
19705;SDS011;10003;52.506;4.700;2022-12-05T14:02:50;2.93;;;2.73;;
19705;SDS011;10003;52.506;4.700;2022-12-05T14:11:09;4.47;;;3.03;;
19705;SDS011;10003;52.506;4.700;2022-12-05T14:13:39;6.73;;;2.63;;
19705;SDS011;10003;52.506;4.700;2022-12-05T14:18:57;5.20;;;3.93;;
19705;SDS011;10003;52.506;4.700;2022-12-05T14:21:34;3.93;;;3.03;;
19705;SDS011;10003;52.506;4.700;2022-12-05T14:24:05;4.20;;;2.60;;
19705;SDS011;10003;52.506;4.700;2022-12-05T14:26:42;5.40;;;2.83;;
19705;SDS011;10003;52.506;4.700;2022-12-05T14:29:19;3.70;;;1.70;;
19705;SDS011;10003;52.506;4.700;2022-12-05T14:32:01;1.93;;;1.80;;
19705;SDS011;10003;52.506;4.700;2022-12-05T14:34:31;3.30;;;2.13;;
19705;SDS011;10003;52.506;4.700;2022-12-05T14:37:01;3.77;;;3.00;;
19705;SDS011;10003;52.506;4.700;2022-12-05T14:39:32;3.07;;;2.83;;
19705;SDS011;10003;52.506;4.700;2022-12-05T14:42:04;7.80;;;4.63;;
19705;SDS011;10003;52.506;4.700;2022-12-05T14:44:34;3.27;;;2.97;;
19705;SDS011;10003;52.506;4.700;2022-12-05T14:47:03;7.33;;;2.73;;
19705;SDS011;10003;52.506;4.700;2022-12-05T14:49:32;1.87;;;1.77;;
19705;SDS011;10003;52.506;4.700;2022-12-05T14:52:08;2.00;;;1.87;;
19705;SDS011;10003;52.506;4.700;2022-12-05T14:54:38;4.40;;;2.97;;
19705;SDS011;10003;52.506;4.700;2022-12-05T14:57:10;4.23;;;2.53;;
19705;SDS011;10003;52.506;4.700;2022-12-05T14:59:44;2.50;;;2.33;;
19705;SDS011;10003;52.506;4.700;2022-12-05T15:02:15;4.57;;;4.00;;
19705;SDS011;10003;52.506;4.700;2022-12-05T15:04:48;5.17;;;2.37;;
19705;SDS011;10003;52.506;4.700;2022-12-05T15:07:18;3.23;;;2.73;;
19705;SDS011;10003;52.506;4.700;2022-12-05T15:09:52;2.90;;;2.53;;
19705;SDS011;10003;52.506;4.700;2022-12-05T15:12:24;8.77;;;2.93;;
19705;SDS011;10003;52.506;4.700;2022-12-05T15:14:59;2.00;;;1.60;;
19705;SDS011;10003;52.506;4.700;2022-12-05T15:17:29;4.33;;;2.40;;
19705;SDS011;10003;52.506;4.700;2022-12-05T15:20:04;3.10;;;1.73;;
19705;SDS011;10003;52.506;4.700;2022-12-05T15:22:34;1.57;;;1.47;;
19705;SDS011;10003;52.506;4.700;2022-12-05T15:25:14;3.03;;;2.50;;